<?xml version="1.0" encoding="utf-8"?>
<gpx xmlns:xsi="http://www.w3.org/2001/XMLSchema-instance" xmlns:xsd="http://www.w3.org/2001/XMLSchema" version="1.1" creator="Shapelink.com" xmlns="http://www.topografix.com/GPX/1/1" xmlns:gpxtpx="http://www.garmin.com/xmlschemas/TrackPointExtension/v1">
  <metadata>
    <name>Promenad 5.89 km, 2017-05-31</name>
    <desc></desc>
    <author><name>Morten Hedlund</name></author> 
    <time>2017-05-31T10:07:57Z</time>
  </metadata>
  <trk>
    <name>Promenad 5.89 km, 2017-05-31</name>
    <trkseg>
      <trkpt lat="59.027479196156" lon="12.223636911956">
        <ele>107.4</ele>
        <time>2017-05-31T10:07:57Z</time>
      </trkpt>
      <trkpt lat="59.027503503666" lon="12.223286632355">
        <ele>110.4</ele>
        <time>2017-05-31T10:08:11Z</time>
      </trkpt>
      <trkpt lat="59.027533259411" lon="12.222931155976">
        <ele>113.8</ele>
        <time>2017-05-31T10:08:26Z</time>
      </trkpt>
      <trkpt lat="59.027556561093" lon="12.222577272158">
        <ele>117</ele>
        <time>2017-05-31T10:08:41Z</time>
      </trkpt>
      <trkpt lat="59.027596794213" lon="12.222221879598">
        <ele>119.6</ele>
        <time>2017-05-31T10:08:57Z</time>
      </trkpt>
      <trkpt lat="59.027604757018" lon="12.221888782892">
        <ele>122</ele>
        <time>2017-05-31T10:09:13Z</time>
      </trkpt>
      <trkpt lat="59.027581036241" lon="12.22199120971">
        <ele>120</ele>
        <time>2017-05-31T10:11:33Z</time>
      </trkpt>
      <trkpt lat="59.027596710394" lon="12.221949886943">
        <ele>119.6</ele>
        <time>2017-05-31T10:11:36Z</time>
      </trkpt>
      <trkpt lat="59.02760375119" lon="12.221914599144">
        <ele>119.8</ele>
        <time>2017-05-31T10:11:39Z</time>
      </trkpt>
      <trkpt lat="59.027576426196" lon="12.222276613405">
        <ele>121.2</ele>
        <time>2017-05-31T10:11:54Z</time>
      </trkpt>
      <trkpt lat="59.027541222216" lon="12.222638543847">
        <ele>121.4</ele>
        <time>2017-05-31T10:12:08Z</time>
      </trkpt>
      <trkpt lat="59.027523704045" lon="12.223002234488">
        <ele>120.8</ele>
        <time>2017-05-31T10:12:22Z</time>
      </trkpt>
      <trkpt lat="59.027502078743" lon="12.22336584131">
        <ele>115.4</ele>
        <time>2017-05-31T10:12:36Z</time>
      </trkpt>
      <trkpt lat="59.027462348537" lon="12.223730956874">
        <ele>108.8</ele>
        <time>2017-05-31T10:12:50Z</time>
      </trkpt>
      <trkpt lat="59.027435945552" lon="12.224054749671">
        <ele>107.2</ele>
        <time>2017-05-31T10:13:03Z</time>
      </trkpt>
      <trkpt lat="59.02741599663" lon="12.22408584652">
        <ele>107.4</ele>
        <time>2017-05-31T10:13:06Z</time>
      </trkpt>
      <trkpt lat="59.027356568959" lon="12.224102526501">
        <ele>105.4</ele>
        <time>2017-05-31T10:13:18Z</time>
      </trkpt>
      <trkpt lat="59.027401831219" lon="12.224064137399">
        <ele>106.4</ele>
        <time>2017-05-31T10:13:23Z</time>
      </trkpt>
      <trkpt lat="59.027415326078" lon="12.223842939058">
        <ele>106.8</ele>
        <time>2017-05-31T10:13:33Z</time>
      </trkpt>
      <trkpt lat="59.027438795398" lon="12.22347983515">
        <ele>108.4</ele>
        <time>2017-05-31T10:13:48Z</time>
      </trkpt>
      <trkpt lat="59.027469137876" lon="12.223130561377">
        <ele>110.2</ele>
        <time>2017-05-31T10:14:01Z</time>
      </trkpt>
      <trkpt lat="59.02750316839" lon="12.222775923188">
        <ele>110.8</ele>
        <time>2017-05-31T10:14:15Z</time>
      </trkpt>
      <trkpt lat="59.027520267466" lon="12.222419273343">
        <ele>111.2</ele>
        <time>2017-05-31T10:14:28Z</time>
      </trkpt>
      <trkpt lat="59.027545832261" lon="12.222074944891">
        <ele>114.6</ele>
        <time>2017-05-31T10:14:41Z</time>
      </trkpt>
      <trkpt lat="59.027584640458" lon="12.221725000566">
        <ele>113.4</ele>
        <time>2017-05-31T10:14:54Z</time>
      </trkpt>
      <trkpt lat="59.027616156402" lon="12.221360220278">
        <ele>112.2</ele>
        <time>2017-05-31T10:15:09Z</time>
      </trkpt>
      <trkpt lat="59.027631243822" lon="12.221295931105">
        <ele>111.6</ele>
        <time>2017-05-31T10:15:13Z</time>
      </trkpt>
      <trkpt lat="59.027639290446" lon="12.22095017773">
        <ele>107</ele>
        <time>2017-05-31T10:15:29Z</time>
      </trkpt>
      <trkpt lat="59.027648091441" lon="12.220591935324">
        <ele>108</ele>
        <time>2017-05-31T10:15:43Z</time>
      </trkpt>
      <trkpt lat="59.027682876326" lon="12.220332096424">
        <ele>108</ele>
        <time>2017-05-31T10:15:53Z</time>
      </trkpt>
      <trkpt lat="59.027715733374" lon="12.219986426868">
        <ele>103</ele>
        <time>2017-05-31T10:16:06Z</time>
      </trkpt>
      <trkpt lat="59.027883371374" lon="12.219913252881">
        <ele>100</ele>
        <time>2017-05-31T10:16:33Z</time>
      </trkpt>
      <trkpt lat="59.028061905844" lon="12.219957257856">
        <ele>98</ele>
        <time>2017-05-31T10:16:50Z</time>
      </trkpt>
      <trkpt lat="59.028239853581" lon="12.220013332767">
        <ele>98.4</ele>
        <time>2017-05-31T10:17:06Z</time>
      </trkpt>
      <trkpt lat="59.028134912193" lon="12.220047363281">
        <ele>100</ele>
        <time>2017-05-31T10:18:15Z</time>
      </trkpt>
      <trkpt lat="59.027950929488" lon="12.219989779628">
        <ele>99.8</ele>
        <time>2017-05-31T10:18:31Z</time>
      </trkpt>
      <trkpt lat="59.027765773317" lon="12.219933034165">
        <ele>100</ele>
        <time>2017-05-31T10:18:45Z</time>
      </trkpt>
      <trkpt lat="59.027578270214" lon="12.21988064729">
        <ele>100.8</ele>
        <time>2017-05-31T10:18:59Z</time>
      </trkpt>
      <trkpt lat="59.027392359672" lon="12.219838821609">
        <ele>96.8</ele>
        <time>2017-05-31T10:19:15Z</time>
      </trkpt>
      <trkpt lat="59.027212484098" lon="12.21975827155">
        <ele>95.8</ele>
        <time>2017-05-31T10:19:51Z</time>
      </trkpt>
      <trkpt lat="59.02702707647" lon="12.219692389816">
        <ele>95.8</ele>
        <time>2017-05-31T10:20:05Z</time>
      </trkpt>
      <trkpt lat="59.026843009946" lon="12.21964008676">
        <ele>99.6</ele>
        <time>2017-05-31T10:20:20Z</time>
      </trkpt>
      <trkpt lat="59.026655171567" lon="12.219623909693">
        <ele>105.2</ele>
        <time>2017-05-31T10:20:34Z</time>
      </trkpt>
      <trkpt lat="59.026467752283" lon="12.219560961624">
        <ele>105.8</ele>
        <time>2017-05-31T10:20:49Z</time>
      </trkpt>
      <trkpt lat="59.026285445958" lon="12.219567750963">
        <ele>105.8</ele>
        <time>2017-05-31T10:21:03Z</time>
      </trkpt>
      <trkpt lat="59.026100625063" lon="12.219511508414">
        <ele>105.6</ele>
        <time>2017-05-31T10:21:22Z</time>
      </trkpt>
      <trkpt lat="59.02591563653" lon="12.219487955275">
        <ele>104.2</ele>
        <time>2017-05-31T10:21:36Z</time>
      </trkpt>
      <trkpt lat="59.02572117645" lon="12.219450404363">
        <ele>102.2</ele>
        <time>2017-05-31T10:21:50Z</time>
      </trkpt>
      <trkpt lat="59.025548760767" lon="12.219351330305">
        <ele>99.4</ele>
        <time>2017-05-31T10:22:03Z</time>
      </trkpt>
      <trkpt lat="59.025360838569" lon="12.219285364752">
        <ele>99.2</ele>
        <time>2017-05-31T10:22:18Z</time>
      </trkpt>
      <trkpt lat="59.025181465909" lon="12.219170365084">
        <ele>101</ele>
        <time>2017-05-31T10:22:39Z</time>
      </trkpt>
      <trkpt lat="59.025034531202" lon="12.219021251083">
        <ele>101.4</ele>
        <time>2017-05-31T10:22:52Z</time>
      </trkpt>
      <trkpt lat="59.024880974794" lon="12.218834837627">
        <ele>101</ele>
        <time>2017-05-31T10:23:12Z</time>
      </trkpt>
      <trkpt lat="59.024724149445" lon="12.218632247104">
        <ele>101</ele>
        <time>2017-05-31T10:23:26Z</time>
      </trkpt>
      <trkpt lat="59.024566485906" lon="12.218456311023">
        <ele>102.2</ele>
        <time>2017-05-31T10:23:39Z</time>
      </trkpt>
      <trkpt lat="59.024410331109" lon="12.218279117657">
        <ele>103.2</ele>
        <time>2017-05-31T10:23:53Z</time>
      </trkpt>
      <trkpt lat="59.024267335895" lon="12.218112150209">
        <ele>103.8</ele>
        <time>2017-05-31T10:24:07Z</time>
      </trkpt>
      <trkpt lat="59.024096261316" lon="12.217954654308">
        <ele>102</ele>
        <time>2017-05-31T10:24:31Z</time>
      </trkpt>
      <trkpt lat="59.023926192565" lon="12.217798750968">
        <ele>100.6</ele>
        <time>2017-05-31T10:24:51Z</time>
      </trkpt>
      <trkpt lat="59.023753273968" lon="12.217641506524">
        <ele>104.4</ele>
        <time>2017-05-31T10:25:06Z</time>
      </trkpt>
      <trkpt lat="59.023639866861" lon="12.217539834077">
        <ele>105.2</ele>
        <time>2017-05-31T10:25:17Z</time>
      </trkpt>
      <trkpt lat="59.023470384843" lon="12.21739122299">
        <ele>107</ele>
        <time>2017-05-31T10:25:33Z</time>
      </trkpt>
      <trkpt lat="59.023416656864" lon="12.217359707046">
        <ele>107.8</ele>
        <time>2017-05-31T10:25:38Z</time>
      </trkpt>
      <trkpt lat="59.023248767407" lon="12.217221992429">
        <ele>108.2</ele>
        <time>2017-05-31T10:25:55Z</time>
      </trkpt>
      <trkpt lat="59.02311943469" lon="12.217121409629">
        <ele>109.8</ele>
        <time>2017-05-31T10:26:06Z</time>
      </trkpt>
      <trkpt lat="59.022952970156" lon="12.216994088568">
        <ele>110</ele>
        <time>2017-05-31T10:26:45Z</time>
      </trkpt>
      <trkpt lat="59.022776447342" lon="12.216883531307">
        <ele>113.2</ele>
        <time>2017-05-31T10:27:00Z</time>
      </trkpt>
      <trkpt lat="59.022747865063" lon="12.21685813415">
        <ele>114</ele>
        <time>2017-05-31T10:27:03Z</time>
      </trkpt>
      <trkpt lat="59.022628171531" lon="12.216814296813">
        <ele>113.8</ele>
        <time>2017-05-31T10:27:14Z</time>
      </trkpt>
      <trkpt lat="59.022517698089" lon="12.217106741304">
        <ele>120.8</ele>
        <time>2017-05-31T10:27:29Z</time>
      </trkpt>
      <trkpt lat="59.022415271271" lon="12.217319809202">
        <ele>124</ele>
        <time>2017-05-31T10:27:40Z</time>
      </trkpt>
      <trkpt lat="59.022279065396" lon="12.217554502402">
        <ele>122.6</ele>
        <time>2017-05-31T10:27:55Z</time>
      </trkpt>
      <trkpt lat="59.022269761487" lon="12.217564057768">
        <ele>122</ele>
        <time>2017-05-31T10:27:56Z</time>
      </trkpt>
      <trkpt lat="59.022184685202" lon="12.217763546988">
        <ele>122.2</ele>
        <time>2017-05-31T10:28:07Z</time>
      </trkpt>
      <trkpt lat="59.022089802094" lon="12.218068899605">
        <ele>125.6</ele>
        <time>2017-05-31T10:28:23Z</time>
      </trkpt>
      <trkpt lat="59.021983603421" lon="12.218354554757">
        <ele>123.4</ele>
        <time>2017-05-31T10:28:37Z</time>
      </trkpt>
      <trkpt lat="59.021975975892" lon="12.218395793705">
        <ele>123</ele>
        <time>2017-05-31T10:28:39Z</time>
      </trkpt>
      <trkpt lat="59.022025261464" lon="12.218705924005">
        <ele>123.6</ele>
        <time>2017-05-31T10:28:58Z</time>
      </trkpt>
      <trkpt lat="59.022043869282" lon="12.218735344474">
        <ele>123.6</ele>
        <time>2017-05-31T10:29:00Z</time>
      </trkpt>
      <trkpt lat="59.022187032134" lon="12.218962158688">
        <ele>122.2</ele>
        <time>2017-05-31T10:29:15Z</time>
      </trkpt>
      <trkpt lat="59.022341510551" lon="12.21916986217">
        <ele>124.2</ele>
        <time>2017-05-31T10:29:30Z</time>
      </trkpt>
      <trkpt lat="59.022500263737" lon="12.219375134901">
        <ele>120</ele>
        <time>2017-05-31T10:29:46Z</time>
      </trkpt>
      <trkpt lat="59.02261819707" lon="12.219652408153">
        <ele>119.6</ele>
        <time>2017-05-31T10:30:00Z</time>
      </trkpt>
      <trkpt lat="59.022683911166" lon="12.219976368588">
        <ele>123</ele>
        <time>2017-05-31T10:30:13Z</time>
      </trkpt>
      <trkpt lat="59.022708805409" lon="12.220263281025">
        <ele>132.2</ele>
        <time>2017-05-31T10:31:07Z</time>
      </trkpt>
      <trkpt lat="59.022719282784" lon="12.220294210236">
        <ele>132</ele>
        <time>2017-05-31T10:31:09Z</time>
      </trkpt>
      <trkpt lat="59.022740488991" lon="12.220652871737">
        <ele>130.6</ele>
        <time>2017-05-31T10:31:24Z</time>
      </trkpt>
      <trkpt lat="59.022753564755" lon="12.220801147548">
        <ele>130.2</ele>
        <time>2017-05-31T10:31:32Z</time>
      </trkpt>
      <trkpt lat="59.022926315714" lon="12.220865436721">
        <ele>128.4</ele>
        <time>2017-05-31T10:31:56Z</time>
      </trkpt>
      <trkpt lat="59.023098899035" lon="12.220999966216">
        <ele>122.8</ele>
        <time>2017-05-31T10:32:15Z</time>
      </trkpt>
      <trkpt lat="59.023355301356" lon="12.2212879683">
        <ele>119</ele>
        <time>2017-05-31T10:32:38Z</time>
      </trkpt>
      <trkpt lat="59.023530818342" lon="12.221435070645">
        <ele>118.8</ele>
        <time>2017-05-31T10:32:52Z</time>
      </trkpt>
      <trkpt lat="59.023694600668" lon="12.22158468756">
        <ele>118.2</ele>
        <time>2017-05-31T10:33:05Z</time>
      </trkpt>
      <trkpt lat="59.023858550632" lon="12.221741261452">
        <ele>115.8</ele>
        <time>2017-05-31T10:33:19Z</time>
      </trkpt>
      <trkpt lat="59.02402803265" lon="12.221806472634">
        <ele>114.8</ele>
        <time>2017-05-31T10:33:33Z</time>
      </trkpt>
      <trkpt lat="59.024084861932" lon="12.221714690829">
        <ele>114.6</ele>
        <time>2017-05-31T10:33:40Z</time>
      </trkpt>
      <trkpt lat="59.02416046667" lon="12.221426185831">
        <ele>115.8</ele>
        <time>2017-05-31T10:33:59Z</time>
      </trkpt>
      <trkpt lat="59.024245291498" lon="12.221105410518">
        <ele>116.6</ele>
        <time>2017-05-31T10:34:12Z</time>
      </trkpt>
      <trkpt lat="59.024314442173" lon="12.220780611893">
        <ele>116.6</ele>
        <time>2017-05-31T10:34:26Z</time>
      </trkpt>
      <trkpt lat="59.024279070555" lon="12.22042966174">
        <ele>114.2</ele>
        <time>2017-05-31T10:34:41Z</time>
      </trkpt>
      <trkpt lat="59.024339671692" lon="12.220095307749">
        <ele>113.6</ele>
        <time>2017-05-31T10:34:54Z</time>
      </trkpt>
      <trkpt lat="59.024346209574" lon="12.220068066574">
        <ele>113.2</ele>
        <time>2017-05-31T10:34:56Z</time>
      </trkpt>
      <trkpt lat="59.024456766835" lon="12.219780232128">
        <ele>109.4</ele>
        <time>2017-05-31T10:35:23Z</time>
      </trkpt>
      <trkpt lat="59.024615687659" lon="12.219620473114">
        <ele>111.6</ele>
        <time>2017-05-31T10:35:41Z</time>
      </trkpt>
      <trkpt lat="59.024736973752" lon="12.219352419952">
        <ele>114</ele>
        <time>2017-05-31T10:35:58Z</time>
      </trkpt>
      <trkpt lat="59.024853817438" lon="12.219094257432">
        <ele>112.6</ele>
        <time>2017-05-31T10:36:10Z</time>
      </trkpt>
      <trkpt lat="59.025041739636" lon="12.219076403985">
        <ele>108.6</ele>
        <time>2017-05-31T10:36:22Z</time>
      </trkpt>
      <trkpt lat="59.025230583843" lon="12.219125689557">
        <ele>106.2</ele>
        <time>2017-05-31T10:36:35Z</time>
      </trkpt>
      <trkpt lat="59.025407106657" lon="12.219230463307">
        <ele>104</ele>
        <time>2017-05-31T10:36:49Z</time>
      </trkpt>
      <trkpt lat="59.025596202321" lon="12.21930816352">
        <ele>102.8</ele>
        <time>2017-05-31T10:37:03Z</time>
      </trkpt>
      <trkpt lat="59.025777502818" lon="12.219383013887">
        <ele>103.4</ele>
        <time>2017-05-31T10:37:17Z</time>
      </trkpt>
      <trkpt lat="59.025966849939" lon="12.219424839568">
        <ele>104.4</ele>
        <time>2017-05-31T10:37:32Z</time>
      </trkpt>
      <trkpt lat="59.026158460173" lon="12.219426013034">
        <ele>102.6</ele>
        <time>2017-05-31T10:37:47Z</time>
      </trkpt>
      <trkpt lat="59.02634311343" lon="12.219494828433">
        <ele>103.6</ele>
        <time>2017-05-31T10:38:01Z</time>
      </trkpt>
      <trkpt lat="59.026524833022" lon="12.219498181193">
        <ele>102.6</ele>
        <time>2017-05-31T10:38:14Z</time>
      </trkpt>
      <trkpt lat="59.026709234822" lon="12.219549729878">
        <ele>101.4</ele>
        <time>2017-05-31T10:38:28Z</time>
      </trkpt>
      <trkpt lat="59.026892714613" lon="12.219609492825">
        <ele>103.4</ele>
        <time>2017-05-31T10:38:42Z</time>
      </trkpt>
      <trkpt lat="59.02707904425" lon="12.219628100643">
        <ele>104.2</ele>
        <time>2017-05-31T10:38:56Z</time>
      </trkpt>
      <trkpt lat="59.027115254058" lon="12.219649055393">
        <ele>103.4</ele>
        <time>2017-05-31T10:38:59Z</time>
      </trkpt>
      <trkpt lat="59.02711843918" lon="12.219656347646">
        <ele>102.8</ele>
        <time>2017-05-31T10:39:01Z</time>
      </trkpt>
      <trkpt lat="59.027295967822" lon="12.219718206068">
        <ele>101</ele>
        <time>2017-05-31T10:39:15Z</time>
      </trkpt>
      <trkpt lat="59.027482129821" lon="12.219786183277">
        <ele>99.8</ele>
        <time>2017-05-31T10:39:28Z</time>
      </trkpt>
      <trkpt lat="59.027670303476" lon="12.219834043926">
        <ele>96.8</ele>
        <time>2017-05-31T10:39:42Z</time>
      </trkpt>
      <trkpt lat="59.027854202362" lon="12.219895315615">
        <ele>93.8</ele>
        <time>2017-05-31T10:39:56Z</time>
      </trkpt>
      <trkpt lat="59.028033323565" lon="12.219943176264">
        <ele>93.8</ele>
        <time>2017-05-31T10:40:08Z</time>
      </trkpt>
      <trkpt lat="59.028212444768" lon="12.219999083537">
        <ele>94.4</ele>
        <time>2017-05-31T10:40:22Z</time>
      </trkpt>
      <trkpt lat="59.028248067843" lon="12.219993216207">
        <ele>94.2</ele>
        <time>2017-05-31T10:40:25Z</time>
      </trkpt>
      <trkpt lat="59.028354853249" lon="12.219714098937">
        <ele>96.8</ele>
        <time>2017-05-31T10:40:38Z</time>
      </trkpt>
      <trkpt lat="59.028429116883" lon="12.219389300312">
        <ele>100.4</ele>
        <time>2017-05-31T10:40:52Z</time>
      </trkpt>
      <trkpt lat="59.028497010273" lon="12.219043127842">
        <ele>103</ele>
        <time>2017-05-31T10:41:07Z</time>
      </trkpt>
      <trkpt lat="59.028559790704" lon="12.218696955372">
        <ele>104.2</ele>
        <time>2017-05-31T10:41:21Z</time>
      </trkpt>
      <trkpt lat="59.028644028799" lon="12.218397637723">
        <ele>103.2</ele>
        <time>2017-05-31T10:41:35Z</time>
      </trkpt>
      <trkpt lat="59.028825580753" lon="12.218368887806">
        <ele>104.6</ele>
        <time>2017-05-31T10:41:49Z</time>
      </trkpt>
      <trkpt lat="59.02901777772" lon="12.218396464257">
        <ele>106.2</ele>
        <time>2017-05-31T10:42:03Z</time>
      </trkpt>
      <trkpt lat="59.029203352986" lon="12.218455975747">
        <ele>104.2</ele>
        <time>2017-05-31T10:42:17Z</time>
      </trkpt>
      <trkpt lat="59.029395633772" lon="12.218483133103">
        <ele>104.4</ele>
        <time>2017-05-31T10:42:30Z</time>
      </trkpt>
      <trkpt lat="59.029544077221" lon="12.218461088706">
        <ele>105.8</ele>
        <time>2017-05-31T10:42:42Z</time>
      </trkpt>
      <trkpt lat="59.029584058884" lon="12.218381209199">
        <ele>108.8</ele>
        <time>2017-05-31T10:43:00Z</time>
      </trkpt>
      <trkpt lat="59.029568971464" lon="12.218399733198">
        <ele>108.4</ele>
        <time>2017-05-31T10:46:40Z</time>
      </trkpt>
      <trkpt lat="59.029407284613" lon="12.218524036775">
        <ele>104.2</ele>
        <time>2017-05-31T10:46:57Z</time>
      </trkpt>
      <trkpt lat="59.029220368243" lon="12.218476595221">
        <ele>106.6</ele>
        <time>2017-05-31T10:47:12Z</time>
      </trkpt>
      <trkpt lat="59.029038900108" lon="12.218437032653">
        <ele>104.8</ele>
        <time>2017-05-31T10:47:25Z</time>
      </trkpt>
      <trkpt lat="59.028857934887" lon="12.218444324906">
        <ele>104.4</ele>
        <time>2017-05-31T10:47:39Z</time>
      </trkpt>
      <trkpt lat="59.028674790372" lon="12.218453628815">
        <ele>103.4</ele>
        <time>2017-05-31T10:47:53Z</time>
      </trkpt>
      <trkpt lat="59.028613686321" lon="12.218775745232">
        <ele>111.2</ele>
        <time>2017-05-31T10:48:09Z</time>
      </trkpt>
      <trkpt lat="59.028591055191" lon="12.219126192471">
        <ele>111.6</ele>
        <time>2017-05-31T10:48:23Z</time>
      </trkpt>
      <trkpt lat="59.02851486372" lon="12.219437999151">
        <ele>111</ele>
        <time>2017-05-31T10:48:36Z</time>
      </trkpt>
      <trkpt lat="59.028427524322" lon="12.219775538264">
        <ele>107.4</ele>
        <time>2017-05-31T10:48:50Z</time>
      </trkpt>
      <trkpt lat="59.028298862157" lon="12.22002816873">
        <ele>108.2</ele>
        <time>2017-05-31T10:49:02Z</time>
      </trkpt>
      <trkpt lat="59.028118986583" lon="12.220020122106">
        <ele>104.2</ele>
        <time>2017-05-31T10:49:14Z</time>
      </trkpt>
      <trkpt lat="59.027933914231" lon="12.219957676951">
        <ele>99.6</ele>
        <time>2017-05-31T10:49:27Z</time>
      </trkpt>
      <trkpt lat="59.027749931526" lon="12.219899422746">
        <ele>100.6</ele>
        <time>2017-05-31T10:49:40Z</time>
      </trkpt>
      <trkpt lat="59.027565278269" lon="12.219890789389">
        <ele>102.4</ele>
        <time>2017-05-31T10:49:53Z</time>
      </trkpt>
      <trkpt lat="59.027390096559" lon="12.219814095004">
        <ele>101.4</ele>
        <time>2017-05-31T10:50:06Z</time>
      </trkpt>
      <trkpt lat="59.027205443302" lon="12.219768162192">
        <ele>102.2</ele>
        <time>2017-05-31T10:50:19Z</time>
      </trkpt>
      <trkpt lat="59.027023304615" lon="12.219708985978">
        <ele>101.4</ele>
        <time>2017-05-31T10:50:33Z</time>
      </trkpt>
      <trkpt lat="59.026834544227" lon="12.219654168352">
        <ele>103.2</ele>
        <time>2017-05-31T10:50:48Z</time>
      </trkpt>
      <trkpt lat="59.026654165739" lon="12.219634303249">
        <ele>104.6</ele>
        <time>2017-05-31T10:51:01Z</time>
      </trkpt>
      <trkpt lat="59.026469512482" lon="12.219574624121">
        <ele>104.2</ele>
        <time>2017-05-31T10:51:15Z</time>
      </trkpt>
      <trkpt lat="59.026277566972" lon="12.219591639378">
        <ele>106</ele>
        <time>2017-05-31T10:51:28Z</time>
      </trkpt>
      <trkpt lat="59.026097020846" lon="12.219547634403">
        <ele>107.8</ele>
        <time>2017-05-31T10:51:43Z</time>
      </trkpt>
      <trkpt lat="59.025915804168" lon="12.219467251982">
        <ele>106.2</ele>
        <time>2017-05-31T10:51:58Z</time>
      </trkpt>
      <trkpt lat="59.025729474531" lon="12.219440010807">
        <ele>104.6</ele>
        <time>2017-05-31T10:52:11Z</time>
      </trkpt>
      <trkpt lat="59.025545743283" lon="12.219374464349">
        <ele>104.8</ele>
        <time>2017-05-31T10:52:24Z</time>
      </trkpt>
      <trkpt lat="59.025360335655" lon="12.219303469656">
        <ele>107.2</ele>
        <time>2017-05-31T10:52:39Z</time>
      </trkpt>
      <trkpt lat="59.025177023502" lon="12.21924027013">
        <ele>109</ele>
        <time>2017-05-31T10:52:52Z</time>
      </trkpt>
      <trkpt lat="59.024995639186" lon="12.219205401426">
        <ele>108.4</ele>
        <time>2017-05-31T10:53:05Z</time>
      </trkpt>
      <trkpt lat="59.024818362001" lon="12.21922015357">
        <ele>107.8</ele>
        <time>2017-05-31T10:53:20Z</time>
      </trkpt>
      <trkpt lat="59.024709900215" lon="12.219512011328">
        <ele>106.4</ele>
        <time>2017-05-31T10:53:36Z</time>
      </trkpt>
      <trkpt lat="59.024695064252" lon="12.219550819525">
        <ele>106.4</ele>
        <time>2017-05-31T10:53:38Z</time>
      </trkpt>
      <trkpt lat="59.024652735657" lon="12.219686354848">
        <ele>111.4</ele>
        <time>2017-05-31T10:53:44Z</time>
      </trkpt>
      <trkpt lat="59.024478811232" lon="12.219805629285">
        <ele>112.4</ele>
        <time>2017-05-31T10:53:58Z</time>
      </trkpt>
      <trkpt lat="59.024404547598" lon="12.220097989957">
        <ele>112.8</ele>
        <time>2017-05-31T10:54:18Z</time>
      </trkpt>
      <trkpt lat="59.024334307276" lon="12.220422704763">
        <ele>117</ele>
        <time>2017-05-31T10:54:34Z</time>
      </trkpt>
      <trkpt lat="59.024367080505" lon="12.220763764274">
        <ele>122</ele>
        <time>2017-05-31T10:54:49Z</time>
      </trkpt>
      <trkpt lat="59.024278735279" lon="12.221209681354">
        <ele>119.4</ele>
        <time>2017-05-31T10:55:06Z</time>
      </trkpt>
      <trkpt lat="59.024222325092" lon="12.221558787489">
        <ele>120</ele>
        <time>2017-05-31T10:55:21Z</time>
      </trkpt>
      <trkpt lat="59.024113360392" lon="12.221872019092">
        <ele>121.4</ele>
        <time>2017-05-31T10:55:35Z</time>
      </trkpt>
      <trkpt lat="59.024081090077" lon="12.221891381281">
        <ele>121.4</ele>
        <time>2017-05-31T10:55:37Z</time>
      </trkpt>
      <trkpt lat="59.023892664965" lon="12.22182524809">
        <ele>118</ele>
        <time>2017-05-31T10:55:48Z</time>
      </trkpt>
      <trkpt lat="59.023716309789" lon="12.221710583698">
        <ele>118</ele>
        <time>2017-05-31T10:56:02Z</time>
      </trkpt>
      <trkpt lat="59.023548755608" lon="12.221575216013">
        <ele>121.8</ele>
        <time>2017-05-31T10:56:16Z</time>
      </trkpt>
      <trkpt lat="59.023380698513" lon="12.221425599098">
        <ele>123.4</ele>
        <time>2017-05-31T10:56:30Z</time>
      </trkpt>
      <trkpt lat="59.023233512349" lon="12.221215800141">
        <ele>122.8</ele>
        <time>2017-05-31T10:56:45Z</time>
      </trkpt>
      <trkpt lat="59.023073753335" lon="12.221051347263">
        <ele>122.2</ele>
        <time>2017-05-31T10:57:00Z</time>
      </trkpt>
      <trkpt lat="59.022897398159" lon="12.220940622364">
        <ele>124.6</ele>
        <time>2017-05-31T10:57:15Z</time>
      </trkpt>
      <trkpt lat="59.022714672739" lon="12.220966773892">
        <ele>127.4</ele>
        <time>2017-05-31T10:57:31Z</time>
      </trkpt>
      <trkpt lat="59.022535719174" lon="12.220944058943">
        <ele>133.6</ele>
        <time>2017-05-31T10:57:44Z</time>
      </trkpt>
      <trkpt lat="59.022434130546" lon="12.220637197584">
        <ele>135</ele>
        <time>2017-05-31T10:57:58Z</time>
      </trkpt>
      <trkpt lat="59.022352658478" lon="12.220325893818">
        <ele>135.4</ele>
        <time>2017-05-31T10:58:12Z</time>
      </trkpt>
      <trkpt lat="59.022243107045" lon="12.220051554231">
        <ele>134.6</ele>
        <time>2017-05-31T10:58:26Z</time>
      </trkpt>
      <trkpt lat="59.022088880085" lon="12.21986723625">
        <ele>134.6</ele>
        <time>2017-05-31T10:58:43Z</time>
      </trkpt>
      <trkpt lat="59.022010341682" lon="12.219794481358">
        <ele>135.8</ele>
        <time>2017-05-31T10:58:51Z</time>
      </trkpt>
      <trkpt lat="59.02184873865" lon="12.219612510309">
        <ele>138</ele>
        <time>2017-05-31T10:59:06Z</time>
      </trkpt>
      <trkpt lat="59.021726698186" lon="12.21935677854">
        <ele>137.2</ele>
        <time>2017-05-31T10:59:20Z</time>
      </trkpt>
      <trkpt lat="59.021591581958" lon="12.219102136418">
        <ele>136.8</ele>
        <time>2017-05-31T10:59:35Z</time>
      </trkpt>
      <trkpt lat="59.021440204844" lon="12.218877082403">
        <ele>135.6</ele>
        <time>2017-05-31T10:59:50Z</time>
      </trkpt>
      <trkpt lat="59.021331407782" lon="12.218693686431">
        <ele>140.2</ele>
        <time>2017-05-31T11:00:02Z</time>
      </trkpt>
      <trkpt lat="59.021163518325" lon="12.218565610999">
        <ele>142.4</ele>
        <time>2017-05-31T11:00:19Z</time>
      </trkpt>
      <trkpt lat="59.020981547276" lon="12.218587655396">
        <ele>142.4</ele>
        <time>2017-05-31T11:00:37Z</time>
      </trkpt>
      <trkpt lat="59.020802258435" lon="12.218487156415">
        <ele>143</ele>
        <time>2017-05-31T11:00:51Z</time>
      </trkpt>
      <trkpt lat="59.020672841899" lon="12.218230167361">
        <ele>142.8</ele>
        <time>2017-05-31T11:01:06Z</time>
      </trkpt>
      <trkpt lat="59.020571672366" lon="12.217934286291">
        <ele>139.6</ele>
        <time>2017-05-31T11:01:20Z</time>
      </trkpt>
      <trkpt lat="59.020438316337" lon="12.21769883872">
        <ele>138.8</ele>
        <time>2017-05-31T11:01:36Z</time>
      </trkpt>
      <trkpt lat="59.020255423279" lon="12.217677213418">
        <ele>137.8</ele>
        <time>2017-05-31T11:01:51Z</time>
      </trkpt>
      <trkpt lat="59.020193900133" lon="12.217924060373">
        <ele>139.2</ele>
        <time>2017-05-31T11:02:04Z</time>
      </trkpt>
      <trkpt lat="59.020274031097" lon="12.218259084916">
        <ele>141.6</ele>
        <time>2017-05-31T11:02:20Z</time>
      </trkpt>
      <trkpt lat="59.020292471277" lon="12.218600479703">
        <ele>143.2</ele>
        <time>2017-05-31T11:02:35Z</time>
      </trkpt>
      <trkpt lat="59.020313928941" lon="12.218964924715">
        <ele>145.2</ele>
        <time>2017-05-31T11:02:50Z</time>
      </trkpt>
      <trkpt lat="59.020371680232" lon="12.219301038905">
        <ele>148.4</ele>
        <time>2017-05-31T11:03:05Z</time>
      </trkpt>
      <trkpt lat="59.020270929794" lon="12.219591639378">
        <ele>149</ele>
        <time>2017-05-31T11:03:20Z</time>
      </trkpt>
      <trkpt lat="59.020095328989" lon="12.219537576123">
        <ele>149.8</ele>
        <time>2017-05-31T11:03:33Z</time>
      </trkpt>
      <trkpt lat="59.019932887767" lon="12.219367423553">
        <ele>149.6</ele>
        <time>2017-05-31T11:03:47Z</time>
      </trkpt>
      <trkpt lat="59.019803387412" lon="12.219103393703">
        <ele>148</ele>
        <time>2017-05-31T11:04:02Z</time>
      </trkpt>
      <trkpt lat="59.019648154624" lon="12.218935588065">
        <ele>143.8</ele>
        <time>2017-05-31T11:04:18Z</time>
      </trkpt>
      <trkpt lat="59.019632145195" lon="12.218946149259">
        <ele>144</ele>
        <time>2017-05-31T11:04:19Z</time>
      </trkpt>
      <trkpt lat="59.019570454411" lon="12.218948915286">
        <ele>143.4</ele>
        <time>2017-05-31T11:04:25Z</time>
      </trkpt>
      <trkpt lat="59.019403151687" lon="12.218796448525">
        <ele>142.4</ele>
        <time>2017-05-31T11:04:41Z</time>
      </trkpt>
      <trkpt lat="59.019244985234" lon="12.21860408392">
        <ele>145.6</ele>
        <time>2017-05-31T11:04:57Z</time>
      </trkpt>
      <trkpt lat="59.019053877914" lon="12.21860492211">
        <ele>146</ele>
        <time>2017-05-31T11:05:12Z</time>
      </trkpt>
      <trkpt lat="59.018869895209" lon="12.218591594889">
        <ele>143.4</ele>
        <time>2017-05-31T11:05:26Z</time>
      </trkpt>
      <trkpt lat="59.018685241952" lon="12.218565946275">
        <ele>142.6</ele>
        <time>2017-05-31T11:05:41Z</time>
      </trkpt>
      <trkpt lat="59.01851358064" lon="12.218428231658">
        <ele>143</ele>
        <time>2017-05-31T11:05:57Z</time>
      </trkpt>
      <trkpt lat="59.018387935959" lon="12.218179456866">
        <ele>142.6</ele>
        <time>2017-05-31T11:06:12Z</time>
      </trkpt>
      <trkpt lat="59.018258184147" lon="12.21793437011">
        <ele>141.8</ele>
        <time>2017-05-31T11:06:26Z</time>
      </trkpt>
      <trkpt lat="59.018136814235" lon="12.217662545093">
        <ele>141.8</ele>
        <time>2017-05-31T11:06:40Z</time>
      </trkpt>
      <trkpt lat="59.018029861191" lon="12.217372196077">
        <ele>142.4</ele>
        <time>2017-05-31T11:06:55Z</time>
      </trkpt>
      <trkpt lat="59.017930368038" lon="12.217066759641">
        <ele>145</ele>
        <time>2017-05-31T11:07:10Z</time>
      </trkpt>
      <trkpt lat="59.017839843518" lon="12.216765849431">
        <ele>142</ele>
        <time>2017-05-31T11:07:25Z</time>
      </trkpt>
      <trkpt lat="59.017756359794" lon="12.216440464073">
        <ele>141.6</ele>
        <time>2017-05-31T11:07:40Z</time>
      </trkpt>
      <trkpt lat="59.017728531886" lon="12.216080545287">
        <ele>143.4</ele>
        <time>2017-05-31T11:07:55Z</time>
      </trkpt>
      <trkpt lat="59.017817715302" lon="12.215788100796">
        <ele>140.6</ele>
        <time>2017-05-31T11:08:12Z</time>
      </trkpt>
      <trkpt lat="59.017982251999" lon="12.215628006506">
        <ele>139.2</ele>
        <time>2017-05-31T11:08:31Z</time>
      </trkpt>
      <trkpt lat="59.018158774813" lon="12.215509821716">
        <ele>142.8</ele>
        <time>2017-05-31T11:08:45Z</time>
      </trkpt>
      <trkpt lat="59.018328173012" lon="12.215382835931">
        <ele>142.8</ele>
        <time>2017-05-31T11:09:03Z</time>
      </trkpt>
      <trkpt lat="59.018490195139" lon="12.215556341261">
        <ele>139.8</ele>
        <time>2017-05-31T11:09:28Z</time>
      </trkpt>
      <trkpt lat="59.018635202009" lon="12.215773767747">
        <ele>141.6</ele>
        <time>2017-05-31T11:09:42Z</time>
      </trkpt>
      <trkpt lat="59.018791775901" lon="12.21596965275">
        <ele>143.4</ele>
        <time>2017-05-31T11:09:58Z</time>
      </trkpt>
      <trkpt lat="59.01895698315" lon="12.216140224415">
        <ele>144.6</ele>
        <time>2017-05-31T11:10:16Z</time>
      </trkpt>
      <trkpt lat="59.01901398007" lon="12.21619764043">
        <ele>144.8</ele>
        <time>2017-05-31T11:10:21Z</time>
      </trkpt>
      <trkpt lat="59.019189497056" lon="12.21632336893">
        <ele>142</ele>
        <time>2017-05-31T11:10:37Z</time>
      </trkpt>
      <trkpt lat="59.019371635743" lon="12.21625631373">
        <ele>140.6</ele>
        <time>2017-05-31T11:10:53Z</time>
      </trkpt>
      <trkpt lat="59.019543213236" lon="12.216364104964">
        <ele>138.2</ele>
        <time>2017-05-31T11:11:07Z</time>
      </trkpt>
      <trkpt lat="59.019672713591" lon="12.216609359358">
        <ele>139</ele>
        <time>2017-05-31T11:11:21Z</time>
      </trkpt>
      <trkpt lat="59.019844039627" lon="12.216715390393">
        <ele>140</ele>
        <time>2017-05-31T11:11:36Z</time>
      </trkpt>
      <trkpt lat="59.02000639703" lon="12.216731735098">
        <ele>135.6</ele>
        <time>2017-05-31T11:11:51Z</time>
      </trkpt>
      <trkpt lat="59.020197169074" lon="12.216768866915">
        <ele>132.2</ele>
        <time>2017-05-31T11:12:09Z</time>
      </trkpt>
      <trkpt lat="59.020371596413" lon="12.216688233037">
        <ele>131.6</ele>
        <time>2017-05-31T11:12:25Z</time>
      </trkpt>
      <trkpt lat="59.020499755664" lon="12.216548590583">
        <ele>132.2</ele>
        <time>2017-05-31T11:13:07Z</time>
      </trkpt>
      <trkpt lat="59.020595728419" lon="12.216815470279">
        <ele>132.2</ele>
        <time>2017-05-31T11:13:26Z</time>
      </trkpt>
      <trkpt lat="59.020636212996" lon="12.216882190203">
        <ele>132.2</ele>
        <time>2017-05-31T11:13:31Z</time>
      </trkpt>
      <trkpt lat="59.020799576227" lon="12.217074722446">
        <ele>135.6</ele>
        <time>2017-05-31T11:13:47Z</time>
      </trkpt>
      <trkpt lat="59.02095271354" lon="12.217292735665">
        <ele>136.8</ele>
        <time>2017-05-31T11:14:03Z</time>
      </trkpt>
      <trkpt lat="59.02110442593" lon="12.217501193518">
        <ele>134.8</ele>
        <time>2017-05-31T11:14:18Z</time>
      </trkpt>
      <trkpt lat="59.021244152203" lon="12.217734545614">
        <ele>133.8</ele>
        <time>2017-05-31T11:14:33Z</time>
      </trkpt>
      <trkpt lat="59.02130726791" lon="12.21797460323">
        <ele>134.4</ele>
        <time>2017-05-31T11:14:45Z</time>
      </trkpt>
      <trkpt lat="59.021360828251" lon="12.218308621945">
        <ele>134.6</ele>
        <time>2017-05-31T11:15:01Z</time>
      </trkpt>
      <trkpt lat="59.021624019911" lon="12.218590421423">
        <ele>135.2</ele>
        <time>2017-05-31T11:15:35Z</time>
      </trkpt>
      <trkpt lat="59.021670455637" lon="12.218367379064">
        <ele>130.6</ele>
        <time>2017-05-31T11:15:48Z</time>
      </trkpt>
      <trkpt lat="59.021673305483" lon="12.218336617491">
        <ele>130</ele>
        <time>2017-05-31T11:15:50Z</time>
      </trkpt>
      <trkpt lat="59.021675149501" lon="12.218210050801">
        <ele>128.8</ele>
        <time>2017-05-31T11:15:57Z</time>
      </trkpt>
      <trkpt lat="59.021675903872" lon="12.217841498658">
        <ele>123.2</ele>
        <time>2017-05-31T11:16:16Z</time>
      </trkpt>
      <trkpt lat="59.021737427018" lon="12.217572691125">
        <ele>119</ele>
        <time>2017-05-31T11:16:29Z</time>
      </trkpt>
      <trkpt lat="59.021839015646" lon="12.217261722635">
        <ele>118.6</ele>
        <time>2017-05-31T11:16:44Z</time>
      </trkpt>
      <trkpt lat="59.021923253741" lon="12.216935666725">
        <ele>120.2</ele>
        <time>2017-05-31T11:16:59Z</time>
      </trkpt>
      <trkpt lat="59.022019645591" lon="12.216640875302">
        <ele>120.8</ele>
        <time>2017-05-31T11:17:14Z</time>
      </trkpt>
      <trkpt lat="59.022174459284" lon="12.216459910081">
        <ele>121.2</ele>
        <time>2017-05-31T11:17:28Z</time>
      </trkpt>
      <trkpt lat="59.022358190532" lon="12.21649771245">
        <ele>119</ele>
        <time>2017-05-31T11:17:41Z</time>
      </trkpt>
      <trkpt lat="59.022535970631" lon="12.216630733203">
        <ele>118.6</ele>
        <time>2017-05-31T11:17:55Z</time>
      </trkpt>
      <trkpt lat="59.022715259472" lon="12.216759898282">
        <ele>119.6</ele>
        <time>2017-05-31T11:18:09Z</time>
      </trkpt>
      <trkpt lat="59.022877365418" lon="12.216956286199">
        <ele>120</ele>
        <time>2017-05-31T11:18:24Z</time>
      </trkpt>
      <trkpt lat="59.02305824682" lon="12.217054019153">
        <ele>119.4</ele>
        <time>2017-05-31T11:18:38Z</time>
      </trkpt>
      <trkpt lat="59.02323845767" lon="12.217139933628">
        <ele>116.2</ele>
        <time>2017-05-31T11:18:52Z</time>
      </trkpt>
      <trkpt lat="59.023291766554" lon="12.217188129553">
        <ele>115.2</ele>
        <time>2017-05-31T11:18:57Z</time>
      </trkpt>
      <trkpt lat="59.023326970534" lon="12.217526506856">
        <ele>118</ele>
        <time>2017-05-31T11:19:09Z</time>
      </trkpt>
      <trkpt lat="59.023256562574" lon="12.217868236919">
        <ele>123.4</ele>
        <time>2017-05-31T11:19:22Z</time>
      </trkpt>
      <trkpt lat="59.023201325853" lon="12.218200327797">
        <ele>128</ele>
        <time>2017-05-31T11:19:36Z</time>
      </trkpt>
      <trkpt lat="59.023110633695" lon="12.218527724811">
        <ele>122.6</ele>
        <time>2017-05-31T11:19:50Z</time>
      </trkpt>
      <trkpt lat="59.02303058655" lon="12.218854618911">
        <ele>122.4</ele>
        <time>2017-05-31T11:20:04Z</time>
      </trkpt>
      <trkpt lat="59.022952131966" lon="12.219166341772">
        <ele>121</ele>
        <time>2017-05-31T11:20:17Z</time>
      </trkpt>
      <trkpt lat="59.023038800812" lon="12.219459959729">
        <ele>117.6</ele>
        <time>2017-05-31T11:20:32Z</time>
      </trkpt>
      <trkpt lat="59.023205516803" lon="12.219625334616">
        <ele>113.2</ele>
        <time>2017-05-31T11:20:47Z</time>
      </trkpt>
      <trkpt lat="59.023366114007" lon="12.219791044779">
        <ele>112.8</ele>
        <time>2017-05-31T11:21:01Z</time>
      </trkpt>
      <trkpt lat="59.02350164933" lon="12.219873774132">
        <ele>112.6</ele>
        <time>2017-05-31T11:21:12Z</time>
      </trkpt>
      <trkpt lat="59.023680519076" lon="12.220010902016">
        <ele>111.6</ele>
        <time>2017-05-31T11:21:26Z</time>
      </trkpt>
      <trkpt lat="59.023851928931" lon="12.220163452596">
        <ele>111.4</ele>
        <time>2017-05-31T11:21:40Z</time>
      </trkpt>
      <trkpt lat="59.024019231655" lon="12.2202905222">
        <ele>114.2</ele>
        <time>2017-05-31T11:21:53Z</time>
      </trkpt>
      <trkpt lat="59.024193826632" lon="12.220428404455">
        <ele>116.4</ele>
        <time>2017-05-31T11:22:08Z</time>
      </trkpt>
      <trkpt lat="59.024344449375" lon="12.220610962237">
        <ele>116.4</ele>
        <time>2017-05-31T11:22:22Z</time>
      </trkpt>
      <trkpt lat="59.024510662452" lon="12.220777007676">
        <ele>117</ele>
        <time>2017-05-31T11:22:36Z</time>
      </trkpt>
      <trkpt lat="59.02468182085" lon="12.22092000289">
        <ele>118.4</ele>
        <time>2017-05-31T11:22:51Z</time>
      </trkpt>
      <trkpt lat="59.024854236533" lon="12.221042043354">
        <ele>118.2</ele>
        <time>2017-05-31T11:23:05Z</time>
      </trkpt>
      <trkpt lat="59.02503218427" lon="12.221129718028">
        <ele>116.8</ele>
        <time>2017-05-31T11:23:20Z</time>
      </trkpt>
      <trkpt lat="59.025201750107" lon="12.221256284718">
        <ele>116.4</ele>
        <time>2017-05-31T11:23:34Z</time>
      </trkpt>
      <trkpt lat="59.025382380052" lon="12.221364411228">
        <ele>115.2</ele>
        <time>2017-05-31T11:23:49Z</time>
      </trkpt>
      <trkpt lat="59.02555270026" lon="12.221488882443">
        <ele>115.6</ele>
        <time>2017-05-31T11:24:04Z</time>
      </trkpt>
      <trkpt lat="59.025718578061" lon="12.221626010327">
        <ele>114.6</ele>
        <time>2017-05-31T11:24:19Z</time>
      </trkpt>
      <trkpt lat="59.02589216721" lon="12.221735226484">
        <ele>113.2</ele>
        <time>2017-05-31T11:24:34Z</time>
      </trkpt>
      <trkpt lat="59.026070366404" lon="12.221819799855">
        <ele>114.8</ele>
        <time>2017-05-31T11:24:48Z</time>
      </trkpt>
      <trkpt lat="59.026245129019" lon="12.221938571378">
        <ele>113.2</ele>
        <time>2017-05-31T11:25:04Z</time>
      </trkpt>
      <trkpt lat="59.026266083769" lon="12.221951395685">
        <ele>112.6</ele>
        <time>2017-05-31T11:25:06Z</time>
      </trkpt>
      <trkpt lat="59.026438247995" lon="12.222110987061">
        <ele>107.2</ele>
        <time>2017-05-31T11:25:22Z</time>
      </trkpt>
      <trkpt lat="59.026458196917" lon="12.222143425014">
        <ele>106.4</ele>
        <time>2017-05-31T11:25:24Z</time>
      </trkpt>
      <trkpt lat="59.026510080878" lon="12.222486999095">
        <ele>108.6</ele>
        <time>2017-05-31T11:25:38Z</time>
      </trkpt>
      <trkpt lat="59.026444366782" lon="12.222812132996">
        <ele>108.8</ele>
        <time>2017-05-31T11:25:52Z</time>
      </trkpt>
      <trkpt lat="59.026391979907" lon="12.223148582462">
        <ele>108.8</ele>
        <time>2017-05-31T11:26:06Z</time>
      </trkpt>
      <trkpt lat="59.026376138116" lon="12.22349911352">
        <ele>108.4</ele>
        <time>2017-05-31T11:26:20Z</time>
      </trkpt>
      <trkpt lat="59.026356608289" lon="12.223853919347">
        <ele>108.4</ele>
        <time>2017-05-31T11:26:35Z</time>
      </trkpt>
      <trkpt lat="59.026391141717" lon="12.22419145846">
        <ele>109.6</ele>
        <time>2017-05-31T11:26:53Z</time>
      </trkpt>
      <trkpt lat="59.026414694856" lon="12.224194978858">
        <ele>108.8</ele>
        <time>2017-05-31T11:26:56Z</time>
      </trkpt>
      <trkpt lat="59.026597504095" lon="12.224171677176">
        <ele>108.4</ele>
        <time>2017-05-31T11:27:11Z</time>
      </trkpt>
      <trkpt lat="59.026783498456" lon="12.224144184544">
        <ele>104.2</ele>
        <time>2017-05-31T11:27:28Z</time>
      </trkpt>
      <trkpt lat="59.026806883957" lon="12.224176119583">
        <ele>104</ele>
        <time>2017-05-31T11:27:31Z</time>
      </trkpt>
      <trkpt lat="59.026975192509" lon="12.224274187813">
        <ele>104.8</ele>
        <time>2017-05-31T11:27:45Z</time>
      </trkpt>
      <trkpt lat="59.02713520298" lon="12.224240241118">
        <ele>105.8</ele>
        <time>2017-05-31T11:28:15Z</time>
      </trkpt>
    </trkseg>
  </trk>
</gpx>